sensor_id;sensor_type;location;lat;lon;timestamp;pressure;altitude;pressure_sealevel;temperature;humidity
68525;BME280;55524;51.380;13.372;2023-04-24T00:01:30;99327.75;;;10.69;100.00
68525;BME280;55524;51.380;13.372;2023-04-24T00:03:57;99318.56;;;10.60;100.00
68525;BME280;55524;51.380;13.372;2023-04-24T00:06:26;99318.22;;;10.50;100.00
68525;BME280;55524;51.380;13.372;2023-04-24T00:09:00;99314.38;;;10.56;100.00
68525;BME280;55524;51.380;13.372;2023-04-24T00:11:27;99306.97;;;10.47;100.00
68525;BME280;55524;51.380;13.372;2023-04-24T00:13:53;99304.59;;;10.42;100.00
68525;BME280;55524;51.380;13.372;2023-04-24T00:16:20;99305.19;;;10.47;100.00
68525;BME280;55524;51.380;13.372;2023-04-24T00:18:46;99299.91;;;10.47;100.00
68525;BME280;55524;51.380;13.372;2023-04-24T00:21:14;99310.72;;;10.58;100.00
68525;BME280;55524;51.380;13.372;2023-04-24T00:23:42;99303.81;;;10.56;100.00
68525;BME280;55524;51.380;13.372;2023-04-24T00:26:08;99309.88;;;10.58;100.00
68525;BME280;55524;51.380;13.372;2023-04-24T00:28:34;99303.91;;;10.54;100.00
68525;BME280;55524;51.380;13.372;2023-04-24T00:31:01;99303.06;;;10.54;100.00
68525;BME280;55524;51.380;13.372;2023-04-24T00:33:27;99298.03;;;10.49;100.00
68525;BME280;55524;51.380;13.372;2023-04-24T00:35:53;99299.06;;;10.47;100.00
68525;BME280;55524;51.380;13.372;2023-04-24T00:38:20;99292.41;;;10.55;100.00
68525;BME280;55524;51.380;13.372;2023-04-24T00:40:46;99292.75;;;10.65;100.00
68525;BME280;55524;51.380;13.372;2023-04-24T00:43:13;99286.78;;;10.77;100.00
68525;BME280;55524;51.380;13.372;2023-04-24T00:45:40;99279.59;;;10.79;100.00
68525;BME280;55524;51.380;13.372;2023-04-24T00:48:07;99275.16;;;10.80;100.00
68525;BME280;55524;51.380;13.372;2023-04-24T00:50:35;99281.28;;;10.80;100.00
68525;BME280;55524;51.380;13.372;2023-04-24T00:53:01;99276.00;;;10.80;100.00
68525;BME280;55524;51.380;13.372;2023-04-24T00:55:28;99268.34;;;10.76;100.00
68525;BME280;55524;51.380;13.372;2023-04-24T00:57:54;99267.91;;;10.83;100.00
68525;BME280;55524;51.380;13.372;2023-04-24T01:00:21;99267.47;;;10.91;100.00
68525;BME280;55524;51.380;13.372;2023-04-24T01:02:48;99276.34;;;10.90;100.00
68525;BME280;55524;51.380;13.372;2023-04-24T01:05:16;99273.78;;;10.89;100.00
68525;BME280;55524;51.380;13.372;2023-04-24T01:07:44;99274.66;;;10.89;100.00
68525;BME280;55524;51.380;13.372;2023-04-24T01:10:13;99280.09;;;10.86;100.00
68525;BME280;55524;51.380;13.372;2023-04-24T01:12:40;99278.03;;;10.91;100.00
68525;BME280;55524;51.380;13.372;2023-04-24T01:15:07;99285.69;;;10.96;100.00
68525;BME280;55524;51.380;13.372;2023-04-24T01:17:33;99282.78;;;11.00;100.00
68525;BME280;55524;51.380;13.372;2023-04-24T01:20:00;99283.41;;;11.05;100.00
68525;BME280;55524;51.380;13.372;2023-04-24T01:22:27;99282.72;;;11.02;100.00
68525;BME280;55524;51.380;13.372;2023-04-24T01:24:54;99284.50;;;11.01;100.00
68525;BME280;55524;51.380;13.372;2023-04-24T01:27:20;99287.84;;;11.05;100.00
68525;BME280;55524;51.380;13.372;2023-04-24T01:29:47;99289.59;;;11.04;100.00
68525;BME280;55524;51.380;13.372;2023-04-24T01:32:15;99285.94;;;11.07;100.00
68525;BME280;55524;51.380;13.372;2023-04-24T01:34:41;99290.53;;;11.03;100.00
68525;BME280;55524;51.380;13.372;2023-04-24T01:37:08;99286.78;;;11.07;100.00
68525;BME280;55524;51.380;13.372;2023-04-24T01:39:35;99280.66;;;11.07;100.00
68525;BME280;55524;51.380;13.372;2023-04-24T01:42:02;99282.28;;;11.10;100.00
68525;BME280;55524;51.380;13.372;2023-04-24T01:44:28;99286.44;;;11.14;100.00
68525;BME280;55524;51.380;13.372;2023-04-24T01:46:55;99283.97;;;11.11;100.00
68525;BME280;55524;51.380;13.372;2023-04-24T01:49:21;99280.66;;;11.07;100.00
68525;BME280;55524;51.380;13.372;2023-04-24T01:51:48;99288.75;;;11.04;100.00
68525;BME280;55524;51.380;13.372;2023-04-24T01:54:14;99280.91;;;11.02;100.00
68525;BME280;55524;51.380;13.372;2023-04-24T01:56:42;99281.94;;;11.00;100.00
68525;BME280;55524;51.380;13.372;2023-04-24T01:59:11;99287.06;;;11.03;100.00
68525;BME280;55524;51.380;13.372;2023-04-24T02:01:39;99275.63;;;11.02;100.00
68525;BME280;55524;51.380;13.372;2023-04-24T02:04:06;99270.16;;;11.05;100.00
68525;BME280;55524;51.380;13.372;2023-04-24T02:06:32;99270.41;;;11.17;100.00
68525;BME280;55524;51.380;13.372;2023-04-24T02:08:59;99272.00;;;11.19;100.00
68525;BME280;55524;51.380;13.372;2023-04-24T02:11:26;99277.78;;;11.26;100.00
68525;BME280;55524;51.380;13.372;2023-04-24T02:13:52;99273.63;;;11.36;100.00
68525;BME280;55524;51.380;13.372;2023-04-24T02:16:19;99269.41;;;11.33;100.00
68525;BME280;55524;51.380;13.372;2023-04-24T02:18:45;99268.72;;;11.30;100.00
68525;BME280;55524;51.380;13.372;2023-04-24T02:21:11;99264.47;;;11.27;100.00
68525;BME280;55524;51.380;13.372;2023-04-24T02:23:38;99271.03;;;11.20;100.00
68525;BME280;55524;51.380;13.372;2023-04-24T02:26:04;99270.97;;;11.22;100.00
68525;BME280;55524;51.380;13.372;2023-04-24T02:28:30;99274.63;;;11.19;100.00
68525;BME280;55524;51.380;13.372;2023-04-24T02:30:56;99273.34;;;11.26;100.00
68525;BME280;55524;51.380;13.372;2023-04-24T02:33:23;99279.06;;;11.19;100.00
68525;BME280;55524;51.380;13.372;2023-04-24T02:35:49;99280.19;;;11.15;100.00
68525;BME280;55524;51.380;13.372;2023-04-24T02:38:15;99285.50;;;11.15;100.00
68525;BME280;55524;51.380;13.372;2023-04-24T02:40:42;99283.97;;;11.11;100.00
68525;BME280;55524;51.380;13.372;2023-04-24T02:43:08;99280.38;;;11.12;100.00
68525;BME280;55524;51.380;13.372;2023-04-24T02:45:34;99287.56;;;11.10;100.00
68525;BME280;55524;51.380;13.372;2023-04-24T02:48:00;99285.75;;;11.10;100.00
68525;BME280;55524;51.380;13.372;2023-04-24T02:50:27;99280.47;;;11.10;100.00
68525;BME280;55524;51.380;13.372;2023-04-24T02:52:53;99278.56;;;11.12;100.00
68525;BME280;55524;51.380;13.372;2023-04-24T02:55:19;99280.19;;;11.15;100.00
68525;BME280;55524;51.380;13.372;2023-04-24T02:57:46;99281.16;;;11.14;100.00
68525;BME280;55524;51.380;13.372;2023-04-24T03:00:12;99278.13;;;11.20;100.00
68525;BME280;55524;51.380;13.372;2023-04-24T03:02:39;99282.75;;;11.16;100.00
68525;BME280;55524;51.380;13.372;2023-04-24T03:05:06;99275.25;;;11.08;100.00
68525;BME280;55524;51.380;13.372;2023-04-24T03:07:33;99284.91;;;11.10;100.00
68525;BME280;55524;51.380;13.372;2023-04-24T03:09:59;99280.03;;;11.18;100.00
68525;BME280;55524;51.380;13.372;2023-04-24T03:12:26;99279.06;;;11.19;100.00
68525;BME280;55524;51.380;13.372;2023-04-24T03:14:52;99279.66;;;11.24;100.00
68525;BME280;55524;51.380;13.372;2023-04-24T03:17:18;99283.06;;;11.26;100.00
68525;BME280;55524;51.380;13.372;2023-04-24T03:19:44;99269.91;;;11.24;100.00
68525;BME280;55524;51.380;13.372;2023-04-24T03:22:11;99275.22;;;11.24;100.00
68525;BME280;55524;51.380;13.372;2023-04-24T03:24:38;99277.97;;;11.23;100.00
68525;BME280;55524;51.380;13.372;2023-04-24T03:27:04;99279.66;;;11.24;100.00
68525;BME280;55524;51.380;13.372;2023-04-24T03:29:30;99281.56;;;11.22;100.00
68525;BME280;55524;51.380;13.372;2023-04-24T03:31:57;99277.22;;;11.21;100.00
68525;BME280;55524;51.380;13.372;2023-04-24T03:34:23;99272.66;;;11.23;100.00
68525;BME280;55524;51.380;13.372;2023-04-24T03:36:49;99279.66;;;11.24;100.00
68525;BME280;55524;51.380;13.372;2023-04-24T03:39:16;99279.84;;;11.21;100.00
68525;BME280;55524;51.380;13.372;2023-04-24T03:41:42;99286.47;;;11.28;100.00
68525;BME280;55524;51.380;13.372;2023-04-24T03:44:08;99285.16;;;11.21;100.00
68525;BME280;55524;51.380;13.372;2023-04-24T03:46:34;99288.97;;;11.15;100.00
68525;BME280;55524;51.380;13.372;2023-04-24T03:49:01;99288.56;;;11.07;100.00
68525;BME280;55524;51.380;13.372;2023-04-24T03:51:27;99291.13;;;11.08;100.00
68525;BME280;55524;51.380;13.372;2023-04-24T03:53:54;99287.63;;;11.08;100.00
68525;BME280;55524;51.380;13.372;2023-04-24T03:56:20;99290.72;;;11.00;100.00
68525;BME280;55524;51.380;13.372;2023-04-24T03:58:46;99293.06;;;10.91;100.00
68525;BME280;55524;51.380;13.372;2023-04-24T04:01:13;99295.69;;;10.91;100.00
68525;BME280;55524;51.380;13.372;2023-04-24T04:03:41;99299.72;;;10.82;100.00
68525;BME280;55524;51.380;13.372;2023-04-24T04:06:08;99301.69;;;10.78;100.00
68525;BME280;55524;51.380;13.372;2023-04-24T04:08:37;99292.91;;;10.78;100.00
68525;BME280;55524;51.380;13.372;2023-04-24T04:11:03;99297.16;;;10.80;100.00
68525;BME280;55524;51.380;13.372;2023-04-24T04:13:29;99303.13;;;10.84;100.00
68525;BME280;55524;51.380;13.372;2023-04-24T04:15:56;99298.03;;;10.81;100.00
68525;BME280;55524;51.380;13.372;2023-04-24T04:18:22;99306.97;;;10.78;100.00
68525;BME280;55524;51.380;13.372;2023-04-24T04:20:48;99313.88;;;10.81;100.00
68525;BME280;55524;51.380;13.372;2023-04-24T04:23:14;99308.59;;;10.81;100.00
68525;BME280;55524;51.380;13.372;2023-04-24T04:25:41;99313.38;;;10.74;100.00
68525;BME280;55524;51.380;13.372;2023-04-24T04:28:07;99307.91;;;10.77;100.00
68525;BME280;55524;51.380;13.372;2023-04-24T04:30:33;99317.59;;;10.77;100.00
68525;BME280;55524;51.380;13.372;2023-04-24T04:33:00;99314.78;;;10.80;100.00
68525;BME280;55524;51.380;13.372;2023-04-24T04:35:27;99309.50;;;10.80;100.00
68525;BME280;55524;51.380;13.372;2023-04-24T04:37:53;99304.63;;;10.88;100.00
68525;BME280;55524;51.380;13.372;2023-04-24T04:40:19;99313.94;;;10.95;100.00
68525;BME280;55524;51.380;13.372;2023-04-24T04:42:46;99311.69;;;11.03;100.00
68525;BME280;55524;51.380;13.372;2023-04-24T04:45:13;99305.22;;;11.09;100.00
68525;BME280;55524;51.380;13.372;2023-04-24T04:47:42;99312.88;;;11.14;100.00
68525;BME280;55524;51.380;13.372;2023-04-24T04:50:09;99310.72;;;11.20;100.00
68525;BME280;55524;51.380;13.372;2023-04-24T04:52:36;99316.34;;;11.30;100.00
68525;BME280;55524;51.380;13.372;2023-04-24T04:55:03;99317.19;;;11.30;100.00
68525;BME280;55524;51.380;13.372;2023-04-24T04:57:29;99322.97;;;11.37;100.00
68525;BME280;55524;51.380;13.372;2023-04-24T04:59:56;99319.22;;;11.41;100.00
68525;BME280;55524;51.380;13.372;2023-04-24T05:02:22;99325.34;;;11.42;100.00
68525;BME280;55524;51.380;13.372;2023-04-24T05:04:49;99326.19;;;11.42;100.00
68525;BME280;55524;51.380;13.372;2023-04-24T05:07:15;99323.19;;;11.48;100.00
68525;BME280;55524;51.380;13.372;2023-04-24T05:09:41;99333.09;;;11.45;100.00
68525;BME280;55524;51.380;13.372;2023-04-24T05:12:08;99324.13;;;11.47;100.00
68525;BME280;55524;51.380;13.372;2023-04-24T05:14:34;99319.50;;;11.51;100.00
68525;BME280;55524;51.380;13.372;2023-04-24T05:17:00;99325.28;;;11.57;100.00
68525;BME280;55524;51.380;13.372;2023-04-24T05:19:27;99320.66;;;11.61;100.00
68525;BME280;55524;51.380;13.372;2023-04-24T05:21:53;99326.41;;;11.68;100.00
68525;BME280;55524;51.380;13.372;2023-04-24T05:24:19;99322.66;;;11.72;100.00
68525;BME280;55524;51.380;13.372;2023-04-24T05:26:46;99318.78;;;11.77;100.00
68525;BME280;55524;51.380;13.372;2023-04-24T05:29:12;99317.59;;;11.83;100.00
68525;BME280;55524;51.380;13.372;2023-04-24T05:31:39;99315.25;;;11.93;100.00
68525;BME280;55524;51.380;13.372;2023-04-24T05:34:06;99310.63;;;11.96;100.00
68525;BME280;55524;51.380;13.372;2023-04-24T05:36:32;99310.16;;;12.04;99.71
68525;BME280;55524;51.380;13.372;2023-04-24T05:38:58;99314.09;;;12.11;99.14
68525;BME280;55524;51.380;13.372;2023-04-24T05:41:25;99312.69;;;12.20;97.74
68525;BME280;55524;51.380;13.372;2023-04-24T05:43:51;99313.81;;;12.30;97.34
68525;BME280;55524;51.380;13.372;2023-04-24T05:46:18;99318.91;;;12.33;97.71
68525;BME280;55524;51.380;13.372;2023-04-24T05:48:44;99320.91;;;12.29;95.72
68525;BME280;55524;51.380;13.372;2023-04-24T05:51:10;99331.78;;;12.39;96.07
68525;BME280;55524;51.380;13.372;2023-04-24T05:53:36;99330.56;;;12.45;96.11
68525;BME280;55524;51.380;13.372;2023-04-24T05:56:03;99334.91;;;12.46;95.62
68525;BME280;55524;51.380;13.372;2023-04-24T05:58:29;99332.25;;;12.46;96.54
68525;BME280;55524;51.380;13.372;2023-04-24T06:00:55;99336.41;;;12.50;95.15
68525;BME280;55524;51.380;13.372;2023-04-24T06:03:23;99335.38;;;12.52;93.85
68525;BME280;55524;51.380;13.372;2023-04-24T06:05:50;99341.78;;;12.63;94.98
68525;BME280;55524;51.380;13.372;2023-04-24T06:08:17;99334.78;;;12.62;93.89
68525;BME280;55524;51.380;13.372;2023-04-24T06:10:43;99339.47;;;12.71;93.86
68525;BME280;55524;51.380;13.372;2023-04-24T06:13:10;99336.91;;;12.84;93.04
68525;BME280;55524;51.380;13.372;2023-04-24T06:15:37;99336.13;;;12.96;92.66
68525;BME280;55524;51.380;13.372;2023-04-24T06:18:04;99342.25;;;12.96;91.64
68525;BME280;55524;51.380;13.372;2023-04-24T06:20:30;99342.41;;;13.08;92.05
68525;BME280;55524;51.380;13.372;2023-04-24T06:22:56;99341.63;;;13.20;92.32
68525;BME280;55524;51.380;13.372;2023-04-24T06:25:25;99338.19;;;13.32;89.87
68525;BME280;55524;51.380;13.372;2023-04-24T06:27:52;99327.59;;;13.45;89.69
68525;BME280;55524;51.380;13.372;2023-04-24T06:30:19;99327.41;;;13.61;89.64
68525;BME280;55524;51.380;13.372;2023-04-24T06:32:45;99309.66;;;13.61;87.87
68525;BME280;55524;51.380;13.372;2023-04-24T06:35:12;99320.31;;;13.87;87.53
68525;BME280;55524;51.380;13.372;2023-04-24T06:37:42;99307.69;;;13.90;85.52
68525;BME280;55524;51.380;13.372;2023-04-24T06:40:09;99324.66;;;14.00;86.16
68525;BME280;55524;51.380;13.372;2023-04-24T06:42:36;99314.00;;;14.13;84.38
68525;BME280;55524;51.380;13.372;2023-04-24T06:45:03;99308.16;;;14.21;83.18
68525;BME280;55524;51.380;13.372;2023-04-24T06:47:29;99305.38;;;14.35;82.43
68525;BME280;55524;51.380;13.372;2023-04-24T06:49:55;99321.41;;;14.46;83.54
68525;BME280;55524;51.380;13.372;2023-04-24T06:52:22;99307.06;;;14.62;80.88
68525;BME280;55524;51.380;13.372;2023-04-24T06:54:48;99320.38;;;14.86;82.12
68525;BME280;55524;51.380;13.372;2023-04-24T06:57:15;99303.84;;;14.93;80.21
68525;BME280;55524;51.380;13.372;2023-04-24T06:59:42;99310.41;;;15.00;81.23
68525;BME280;55524;51.380;13.372;2023-04-24T07:02:08;99303.59;;;14.96;80.32
68525;BME280;55524;51.380;13.372;2023-04-24T07:04:35;99301.75;;;14.86;79.10
68525;BME280;55524;51.380;13.372;2023-04-24T07:07:02;99281.81;;;14.91;77.74
68525;BME280;55524;51.380;13.372;2023-04-24T07:09:28;99282.78;;;14.90;78.03
68525;BME280;55524;51.380;13.372;2023-04-24T07:11:55;99300.94;;;14.96;78.58
68525;BME280;55524;51.380;13.372;2023-04-24T07:14:22;99281.13;;;14.76;76.81
68525;BME280;55524;51.380;13.372;2023-04-24T07:16:49;99301.25;;;15.05;77.96
68525;BME280;55524;51.380;13.372;2023-04-24T07:19:15;99301.75;;;15.10;77.36
68525;BME280;55524;51.380;13.372;2023-04-24T07:21:41;99298.88;;;15.24;77.38
68525;BME280;55524;51.380;13.372;2023-04-24T07:24:08;99291.31;;;15.31;76.76
68525;BME280;55524;51.380;13.372;2023-04-24T07:26:39;99283.66;;;15.26;75.43
68525;BME280;55524;51.380;13.372;2023-04-24T07:29:06;99302.06;;;15.29;77.94
68525;BME280;55524;51.380;13.372;2023-04-24T07:31:33;99284.19;;;14.83;76.44
68525;BME280;55524;51.380;13.372;2023-04-24T07:33:59;99292.06;;;14.85;76.71
68525;BME280;55524;51.380;13.372;2023-04-24T07:36:26;99298.47;;;14.82;78.08
68525;BME280;55524;51.380;13.372;2023-04-24T07:38:52;99321.44;;;14.83;78.42
68525;BME280;55524;51.380;13.372;2023-04-24T07:41:20;99305.03;;;14.89;77.86
68525;BME280;55524;51.380;13.372;2023-04-24T07:43:46;99296.53;;;14.84;76.05
68525;BME280;55524;51.380;13.372;2023-04-24T07:46:12;99301.34;;;15.03;76.66
68525;BME280;55524;51.380;13.372;2023-04-24T07:48:39;99306.31;;;15.32;78.13
68525;BME280;55524;51.380;13.372;2023-04-24T07:51:05;99301.91;;;15.19;76.18
68525;BME280;55524;51.380;13.372;2023-04-24T07:53:32;99304.16;;;15.37;76.06
68525;BME280;55524;51.380;13.372;2023-04-24T07:55:58;99299.47;;;15.40;74.87
68525;BME280;55524;51.380;13.372;2023-04-24T07:58:24;99294.75;;;15.09;74.00
68525;BME280;55524;51.380;13.372;2023-04-24T08:00:51;99318.56;;;15.10;75.99
68525;BME280;55524;51.380;13.372;2023-04-24T08:03:17;99322.75;;;15.02;76.63
68525;BME280;55524;51.380;13.372;2023-04-24T08:05:45;99323.31;;;15.18;76.80
68525;BME280;55524;51.380;13.372;2023-04-24T08:08:12;99307.81;;;15.47;74.52
68525;BME280;55524;51.380;13.372;2023-04-24T08:10:38;99321.66;;;15.28;75.24
68525;BME280;55524;51.380;13.372;2023-04-24T08:13:04;99324.50;;;15.14;75.90
68525;BME280;55524;51.380;13.372;2023-04-24T08:15:31;99329.72;;;14.91;75.87
68525;BME280;55524;51.380;13.372;2023-04-24T08:17:57;99334.75;;;15.07;76.31
68525;BME280;55524;51.380;13.372;2023-04-24T08:20:24;99329.78;;;15.03;76.23
68525;BME280;55524;51.380;13.372;2023-04-24T08:22:50;99334.25;;;14.78;75.78
68525;BME280;55524;51.380;13.372;2023-04-24T08:25:16;99343.84;;;14.68;77.46
68525;BME280;55524;51.380;13.372;2023-04-24T08:27:43;99338.94;;;14.74;76.67
68525;BME280;55524;51.380;13.372;2023-04-24T08:30:10;99342.22;;;14.78;76.28
68525;BME280;55524;51.380;13.372;2023-04-24T08:32:37;99342.66;;;14.72;76.04
68525;BME280;55524;51.380;13.372;2023-04-24T08:35:03;99327.56;;;14.60;75.39
68525;BME280;55524;51.380;13.372;2023-04-24T08:37:30;99328.25;;;14.50;75.08
68525;BME280;55524;51.380;13.372;2023-04-24T08:39:56;99339.91;;;14.61;76.49
68525;BME280;55524;51.380;13.372;2023-04-24T08:42:23;99347.78;;;14.62;77.31
68525;BME280;55524;51.380;13.372;2023-04-24T08:44:50;99338.44;;;14.57;75.90
68525;BME280;55524;51.380;13.372;2023-04-24T08:47:17;99348.00;;;14.59;77.22
68525;BME280;55524;51.380;13.372;2023-04-24T08:49:44;99343.06;;;14.79;76.25
68525;BME280;55524;51.380;13.372;2023-04-24T08:52:13;99348.03;;;14.83;76.35
68525;BME280;55524;51.380;13.372;2023-04-24T08:54:40;99316.25;;;14.69;73.51
68525;BME280;55524;51.380;13.372;2023-04-24T08:57:09;99336.44;;;14.84;75.53
68525;BME280;55524;51.380;13.372;2023-04-24T08:59:38;99333.22;;;14.92;74.36
68525;BME280;55524;51.380;13.372;2023-04-24T09:02:05;99337.53;;;15.06;73.85
68525;BME280;55524;51.380;13.372;2023-04-24T09:04:34;99315.78;;;15.12;72.48
68525;BME280;55524;51.380;13.372;2023-04-24T09:07:01;99330.84;;;15.24;73.10
68525;BME280;55524;51.380;13.372;2023-04-24T09:09:30;99306.09;;;15.11;71.50
68525;BME280;55524;51.380;13.372;2023-04-24T09:11:57;99329.31;;;15.33;73.27
68525;BME280;55524;51.380;13.372;2023-04-24T09:14:24;99317.44;;;15.25;72.15
68525;BME280;55524;51.380;13.372;2023-04-24T09:16:51;99323.44;;;15.52;72.30
68525;BME280;55524;51.380;13.372;2023-04-24T09:19:17;99299.47;;;15.40;70.57
68525;BME280;55524;51.380;13.372;2023-04-24T09:21:46;99290.34;;;15.67;69.98
68525;BME280;55524;51.380;13.372;2023-04-24T09:24:18;99295.81;;;15.77;69.75
68525;BME280;55524;51.380;13.372;2023-04-24T09:26:44;99304.56;;;15.55;70.27
68525;BME280;55524;51.380;13.372;2023-04-24T09:29:18;99291.38;;;15.53;69.43
68525;BME280;55524;51.380;13.372;2023-04-24T09:31:45;99309.63;;;15.82;70.68
68525;BME280;55524;51.380;13.372;2023-04-24T09:34:12;99314.50;;;15.64;71.57
68525;BME280;55524;51.380;13.372;2023-04-24T09:36:47;99292.88;;;15.80;70.35
68525;BME280;55524;51.380;13.372;2023-04-24T09:39:16;99294.97;;;15.87;69.00
68525;BME280;55524;51.380;13.372;2023-04-24T09:41:47;99297.63;;;15.87;68.62
68525;BME280;55524;51.380;13.372;2023-04-24T09:44:16;99301.88;;;15.90;69.76
68525;BME280;55524;51.380;13.372;2023-04-24T09:46:44;99308.88;;;15.80;70.29
68525;BME280;55524;51.380;13.372;2023-04-24T09:49:14;99303.81;;;15.99;68.91
68525;BME280;55524;51.380;13.372;2023-04-24T09:51:42;99287.81;;;15.99;67.81
68525;BME280;55524;51.380;13.372;2023-04-24T09:54:16;99293.53;;;15.94;69.12
68525;BME280;55524;51.380;13.372;2023-04-24T09:56:50;99299.13;;;15.56;69.34
68525;BME280;55524;51.380;13.372;2023-04-24T09:59:20;99302.44;;;15.71;69.49
68525;BME280;55524;51.380;13.372;2023-04-24T10:01:47;99304.03;;;15.73;70.13
68525;BME280;55524;51.380;13.372;2023-04-24T10:06:47;99273.75;;;15.74;67.50
68525;BME280;55524;51.380;13.372;2023-04-24T10:09:15;99288.19;;;15.83;68.97
68525;BME280;55524;51.380;13.372;2023-04-24T10:11:43;99270.63;;;15.81;67.38
68525;BME280;55524;51.380;13.372;2023-04-24T10:14:18;99302.44;;;15.71;70.37
68525;BME280;55524;51.380;13.372;2023-04-24T10:16:47;99298.38;;;15.89;69.56
68525;BME280;55524;51.380;13.372;2023-04-24T10:19:15;99283.34;;;16.33;69.06
68525;BME280;55524;51.380;13.372;2023-04-24T10:21:43;99278.44;;;16.72;67.88
68525;BME280;55524;51.380;13.372;2023-04-24T10:24:19;99229.81;;;16.68;62.79
68525;BME280;55524;51.380;13.372;2023-04-24T10:26:48;99227.75;;;16.72;62.73
68525;BME280;55524;51.380;13.372;2023-04-24T10:29:16;99242.56;;;17.29;63.98
68525;BME280;55524;51.380;13.372;2023-04-24T10:31:43;99217.03;;;17.78;61.59
68525;BME280;55524;51.380;13.372;2023-04-24T10:34:11;99206.44;;;18.07;59.13
68525;BME280;55524;51.380;13.372;2023-04-24T10:36:48;99221.13;;;18.23;61.16
68525;BME280;55524;51.380;13.372;2023-04-24T10:39:17;99215.47;;;17.85;60.60
68525;BME280;55524;51.380;13.372;2023-04-24T10:41:44;99222.31;;;17.48;61.70
68525;BME280;55524;51.380;13.372;2023-04-24T10:44:15;99227.16;;;17.84;61.84
68525;BME280;55524;51.380;13.372;2023-04-24T10:46:46;99242.94;;;17.45;63.03
68525;BME280;55524;51.380;13.372;2023-04-24T10:49:28;99234.63;;;17.39;62.01
68525;BME280;55524;51.380;13.372;2023-04-24T10:52:01;99250.56;;;17.08;63.41
68525;BME280;55524;51.380;13.372;2023-04-24T10:54:34;99242.19;;;16.81;62.39
68525;BME280;55524;51.380;13.372;2023-04-24T10:59:47;99285.66;;;16.27;65.87
68525;BME280;55524;51.380;13.372;2023-04-24T11:02:17;99283.72;;;15.95;64.84
68525;BME280;55524;51.380;13.372;2023-04-24T11:04:44;99291.69;;;15.84;66.16
68525;BME280;55524;51.380;13.372;2023-04-24T11:07:13;99308.91;;;15.44;67.91
68525;BME280;55524;51.380;13.372;2023-04-24T11:09:42;99298.66;;;15.62;66.54
68525;BME280;55524;51.380;13.372;2023-04-24T11:12:10;99297.63;;;15.41;67.36
68525;BME280;55524;51.380;13.372;2023-04-24T11:17:36;99315.59;;;15.61;68.45
68525;BME280;55524;51.380;13.372;2023-04-24T11:22:36;99295.47;;;16.15;66.55
68525;BME280;55524;51.380;13.372;2023-04-24T11:25:03;99278.06;;;16.88;65.05
68525;BME280;55524;51.380;13.372;2023-04-24T11:27:40;99243.47;;;17.81;61.86
68525;BME280;55524;51.380;13.372;2023-04-24T11:30:07;99238.66;;;17.54;60.80
68525;BME280;55524;51.380;13.372;2023-04-24T11:37:36;99249.13;;;17.25;61.75
68525;BME280;55524;51.380;13.372;2023-04-24T11:40:04;99262.72;;;17.01;62.25
68525;BME280;55524;51.380;13.372;2023-04-24T11:42:59;99256.91;;;17.28;62.44
68525;BME280;55524;51.380;13.372;2023-04-24T11:45:28;99255.81;;;18.03;62.10
68525;BME280;55524;51.380;13.372;2023-04-24T11:47:54;99208.06;;;18.49;57.26
68525;BME280;55524;51.380;13.372;2023-04-24T11:50:23;99211.75;;;17.98;58.43
68525;BME280;55524;51.380;13.372;2023-04-24T11:52:51;99222.28;;;17.68;59.54
68525;BME280;55524;51.380;13.372;2023-04-24T11:57:48;99243.75;;;17.15;60.57
68525;BME280;55524;51.380;13.372;2023-04-24T12:02:43;99225.72;;;16.76;58.26
68525;BME280;55524;51.380;13.372;2023-04-24T12:05:18;99234.16;;;16.69;58.87
68525;BME280;55524;51.380;13.372;2023-04-24T12:07:45;99235.81;;;16.50;58.28
68525;BME280;55524;51.380;13.372;2023-04-24T12:10:11;99235.84;;;16.27;57.51
68525;BME280;55524;51.380;13.372;2023-04-24T12:12:38;99247.00;;;16.43;57.59
68525;BME280;55524;51.380;13.372;2023-04-24T12:15:08;99279.00;;;16.43;61.14
68525;BME280;55524;51.380;13.372;2023-04-24T12:17:36;99301.53;;;16.17;63.94
68525;BME280;55524;51.380;13.372;2023-04-24T12:20:07;99302.97;;;15.87;64.27
68525;BME280;55524;51.380;13.372;2023-04-24T12:22:54;99307.22;;;15.90;64.27
68525;BME280;55524;51.380;13.372;2023-04-24T12:25:22;99299.81;;;15.82;64.09
68525;BME280;55524;51.380;13.372;2023-04-24T12:30:29;99269.78;;;16.25;59.89
68525;BME280;55524;51.380;13.372;2023-04-24T12:32:58;99234.91;;;16.83;57.03
68525;BME280;55524;51.380;13.372;2023-04-24T12:35:27;99190.25;;;17.06;53.28
68525;BME280;55524;51.380;13.372;2023-04-24T12:37:54;99177.16;;;17.44;51.90
68525;BME280;55524;51.380;13.372;2023-04-24T12:40:21;99150.22;;;17.88;48.97
68525;BME280;55524;51.380;13.372;2023-04-24T12:42:51;99158.25;;;18.57;49.37
68525;BME280;55524;51.380;13.372;2023-04-24T12:45:19;99151.81;;;18.89;47.63
68525;BME280;55524;51.380;13.372;2023-04-24T12:47:46;99132.63;;;18.84;46.24
68525;BME280;55524;51.380;13.372;2023-04-24T12:50:14;99143.63;;;18.90;47.15
68525;BME280;55524;51.380;13.372;2023-04-24T12:52:41;99151.88;;;18.39;47.76
68525;BME280;55524;51.380;13.372;2023-04-24T12:55:08;99173.28;;;17.79;49.82
68525;BME280;55524;51.380;13.372;2023-04-24T12:57:37;99165.00;;;17.10;48.97
68525;BME280;55524;51.380;13.372;2023-04-24T13:00:05;99185.22;;;16.59;51.27
68525;BME280;55524;51.380;13.372;2023-04-24T13:02:31;99187.97;;;16.37;51.07
68525;BME280;55524;51.380;13.372;2023-04-24T13:04:59;99187.88;;;17.03;51.58
68525;BME280;55524;51.380;13.372;2023-04-24T13:07:27;99186.25;;;17.93;50.96
68525;BME280;55524;51.380;13.372;2023-04-24T13:09:54;99162.97;;;18.15;48.94